Time;durP1;ratioP1;P1;durP2;ratioP2;P2;SDS_P1;SDS_P2;PMS_P1;PMS_P2;Temp;Humidity;BMP_temperature;BMP_pressure;BME280_temperature;BME280_humidity;BME280_pressure;Samples;Min_cycle;Max_cycle;Signal;HPM_P1;HPM_P2
2022/05/09 00:00:34;;;;;;;;;;;;;;;-140.72;100.00;52595.81;5092173;28;20325;-69
2022/05/09 00:03:00;;;;;;;;;;;;;;;-140.72;100.00;52599.88;5072190;28;19916;-69
2022/05/09 00:05:26;;;;;;;;;;;;;;;-140.72;100.00;52567.41;5073252;28;19916;-69
2022/05/09 00:07:52;;;;;;;;;;;;;;;-140.72;100.00;52532.91;5073404;28;20401;-69
2022/05/09 00:10:19;;;;;;;;;;;;;;;-140.72;100.00;52589.72;5080684;28;19941;-68
2022/05/09 00:12:45;;;;;;;;;;;;;;;-140.72;100.00;52565.38;5082347;28;20271;-69
2022/05/09 00:15:11;;;;;;;;;;;;;;;-140.72;100.00;52569.44;5081333;28;19970;-68
2022/05/09 00:17:37;;;;;;;;;;;;;;;-140.72;100.00;52591.75;5086907;28;19920;-68
2022/05/09 00:20:02;;;;;;;;;;;;;;;-140.72;100.00;52577.53;5082351;28;19985;-68
2022/05/09 00:22:28;;;;;;;;;;;;;;;-140.72;100.00;52551.16;5078987;28;20363;-69
2022/05/09 00:24:53;;;;;;;;;;;;;;;-140.72;100.00;52589.72;5072294;28;20378;-69
2022/05/09 00:27:18;;;;;;;;;;;;;;;-140.72;100.00;52541.03;5093260;28;19942;-68
2022/05/09 00:29:43;;;;;;;;;;;;;;;-140.72;100.00;52567.41;5084462;28;20007;-69
2022/05/09 00:32:09;;;;;;;;;;;;;;;-140.72;100.00;52551.16;5078130;28;19920;-69
2022/05/09 00:34:37;;;;;;;;;;;;;;;-140.72;100.00;52561.31;5073008;28;19916;-69
2022/05/09 00:37:03;;;;;;;;;;;;;;;-140.72;100.00;52528.84;5071638;28;19923;-69
2022/05/09 00:39:28;;;;;;;;;;;;;;;-140.72;100.00;52587.69;5071734;28;20287;-69
2022/05/09 00:41:53;;;;;;;;;;;;;;;-140.72;100.00;52551.16;5075950;28;20351;-69
2022/05/09 00:44:20;;;;;;;;;;;;;;;-140.72;100.00;52589.72;5075406;28;19917;-68
2022/05/09 00:46:47;;;;;;;;;;;;;;;-140.72;100.00;52603.94;5076398;28;19922;-68
2022/05/09 00:49:22;;;;;;;;;;;;;;;-140.72;100.00;52585.66;5076525;28;19923;-69
2022/05/09 00:51:52;;;;;;;;;;;;;;;-140.72;100.00;52569.44;5076551;28;20368;-69
2022/05/09 00:54:18;;;;;;;;;;;;;;;-140.72;100.00;52603.94;5075486;28;20284;-68
2022/05/09 00:56:46;;;;;;;;;;;;;;;-140.72;100.00;52577.53;5075362;28;20015;-68
2022/05/09 00:59:13;;;;;;;;;;;;;;;-140.72;100.00;52555.22;5075193;28;20391;-69
2022/05/09 01:01:39;;;;;;;;;;;;;;;-140.72;100.00;52571.47;5076227;28;20368;-68
2022/05/09 01:04:09;;;;;;;;;;;;;;;-140.72;100.00;52543.03;5074874;28;19928;-68
2022/05/09 01:06:36;;;;;;;;;;;;;;;-140.72;100.00;52577.53;5076378;28;19923;-68
2022/05/09 01:09:01;;;;;;;;;;;;;;;-140.72;100.00;52601.91;5074851;28;19917;-68
2022/05/09 01:11:28;;;;;;;;;;;;;;;-140.72;100.00;52597.84;5076175;28;20302;-68
2022/05/09 01:13:57;;;;;;;;;;;;;;;-140.72;100.00;52589.72;5058200;28;20387;-68
2022/05/09 01:16:24;;;;;;;;;;;;;;;-140.72;100.00;52599.88;5076111;28;20003;-68
2022/05/09 01:18:49;;;;;;;;;;;;;;;-140.72;100.00;52569.44;5076075;28;19956;-68
2022/05/09 01:21:32;;;;;;;;;;;;;;;-140.72;100.00;52577.53;5076137;28;19963;-68
2022/05/09 01:23:57;;;;;;;;;;;;;;;-140.72;100.00;52593.78;5076015;28;20005;-69
2022/05/09 01:26:22;;;;;;;;;;;;;;;-140.72;100.00;52607.97;5075833;28;19920;-69
2022/05/09 01:28:48;;;;;;;;;;;;;;;-140.72;100.00;52545.06;5074717;28;19962;-69
2022/05/09 01:31:15;;;;;;;;;;;;;;;-140.72;100.00;52593.78;5075931;28;19959;-69
2022/05/09 01:33:43;;;;;;;;;;;;;;;-140.72;100.00;52573.50;5074360;28;19916;-69
2022/05/09 01:36:10;;;;;;;;;;;;;;;-140.72;100.00;52585.66;5075715;28;19971;-69
2022/05/09 01:38:40;;;;;;;;;;;;;;;-140.72;100.00;52565.38;5075071;28;19916;-69
2022/05/09 01:41:05;;;;;;;;;;;;;;;-140.72;100.00;52559.28;5074090;28;20026;-68
2022/05/09 01:43:40;;;;;;;;;;;;;;;-140.72;100.00;52583.63;5073503;28;20006;-69
2022/05/09 01:46:07;;;;;;;;;;;;;;;-140.72;100.00;52581.59;5075146;28;19921;-68
2022/05/09 01:51:17;;;;;;;;;;;;;;;-140.72;100.00;52581.59;5075736;28;19923;-68
2022/05/09 01:53:49;;;;;;;;;;;;;;;-140.72;100.00;52581.59;5074805;28;20379;-69
2022/05/09 01:56:14;;;;;;;;;;;;;;;-140.72;100.00;52593.78;5072684;28;19924;-68
2022/05/09 01:58:39;;;;;;;;;;;;;;;-140.72;100.00;52605.94;5074077;28;19917;-68
2022/05/09 02:01:05;;;;;;;;;;;;;;;-140.72;100.00;52593.78;5075446;28;20286;-68
2022/05/09 02:03:31;;;;;;;;;;;;;;;-140.72;100.00;52620.16;5075258;28;19916;-69
2022/05/09 02:05:56;;;;;;;;;;;;;;;-140.72;100.00;52638.41;5075386;28;19956;-69
2022/05/09 02:08:21;;;;;;;;;;;;;;;-140.72;100.00;52573.50;5074284;28;19923;-68
2022/05/09 02:10:46;;;;;;;;;;;;;;;-140.72;100.00;52583.63;5075161;28;19923;-68
2022/05/09 02:13:11;;;;;;;;;;;;;;;-140.72;100.00;52597.84;5074773;28;20313;-69
2022/05/09 02:15:37;;;;;;;;;;;;;;;-140.72;100.00;52603.94;5073752;28;20274;-69
2022/05/09 02:18:02;;;;;;;;;;;;;;;-140.72;100.00;52614.06;5073677;28;19959;-68
2022/05/09 02:20:27;;;;;;;;;;;;;;;-140.72;100.00;52614.06;5056896;28;19920;-69
2022/05/09 02:22:52;;;;;;;;;;;;;;;-140.72;100.00;52587.69;5075023;28;20375;-69
2022/05/09 02:25:29;;;;;;;;;;;;;;;-140.72;100.00;52589.72;5074818;28;19916;-69
2022/05/09 02:27:54;;;;;;;;;;;;;;;-140.72;100.00;52585.66;5075538;28;19917;-68
2022/05/09 02:30:19;;;;;;;;;;;;;;;-140.72;100.00;52610.00;5073300;28;19927;-69
2022/05/09 02:32:44;;;;;;;;;;;;;;;-140.72;100.00;52642.47;5077409;28;19916;-69
2022/05/09 02:35:10;;;;;;;;;;;;;;;-140.72;100.00;52622.19;5095254;28;19916;-68
2022/05/09 02:37:35;;;;;;;;;;;;;;;-140.72;100.00;52559.28;5093586;28;19916;-68
2022/05/09 02:40:00;;;;;;;;;;;;;;;-140.72;100.00;52605.94;5095116;28;19984;-69
2022/05/09 02:42:26;;;;;;;;;;;;;;;-140.72;100.00;52626.25;5093127;28;19920;-68
2022/05/09 02:44:56;;;;;;;;;;;;;;;-140.72;100.00;52589.72;5073841;28;19923;-68
2022/05/09 02:47:21;;;;;;;;;;;;;;;-140.72;100.00;52607.97;5082557;28;19917;-68
2022/05/09 02:49:47;;;;;;;;;;;;;;;-140.72;100.00;52577.53;5091730;28;19923;-68
2022/05/09 02:52:12;;;;;;;;;;;;;;;-140.72;100.00;52603.94;5094165;28;19946;-68
2022/05/09 02:54:37;;;;;;;;;;;;;;;-140.72;100.00;52589.72;5095208;28;19954;-68
2022/05/09 02:57:03;;;;;;;;;;;;;;;-140.72;100.00;52605.94;5094536;28;19942;-68
2022/05/09 03:02:30;;;;;;;;;;;;;;;-140.72;100.00;52587.69;5093814;28;19918;-69
2022/05/09 03:04:56;;;;;;;;;;;;;;;-140.72;100.00;52597.84;5092926;28;19924;-68
2022/05/09 03:07:22;;;;;;;;;;;;;;;-140.72;100.00;52642.47;5092966;28;19916;-69
2022/05/09 03:09:48;;;;;;;;;;;;;;;-140.72;100.00;52622.19;5094630;28;19930;-68
2022/05/09 03:12:14;;;;;;;;;;;;;;;-140.72;100.00;52626.25;5093100;28;19916;-69
2022/05/09 03:14:39;;;;;;;;;;;;;;;-140.72;100.00;52618.13;5094203;28;19927;-68
2022/05/09 03:17:05;;;;;;;;;;;;;;;-140.72;100.00;52607.97;5094193;28;19920;-68
2022/05/09 03:19:31;;;;;;;;;;;;;;;-140.72;100.00;52614.06;5092947;28;20036;-68
2022/05/09 03:21:56;;;;;;;;;;;;;;;-140.72;100.00;52630.31;5094007;28;19916;-68
2022/05/09 03:24:22;;;;;;;;;;;;;;;-140.72;100.00;52610.00;5092763;28;19916;-69
2022/05/09 03:26:47;;;;;;;;;;;;;;;-140.72;100.00;52618.13;5093971;28;19917;-69
2022/05/09 03:29:13;;;;;;;;;;;;;;;-140.72;100.00;52622.19;5092643;28;19916;-69
2022/05/09 03:31:38;;;;;;;;;;;;;;;-140.72;100.00;52654.66;5092356;28;20011;-69
2022/05/09 03:34:03;;;;;;;;;;;;;;;-140.72;100.00;52605.94;5093980;28;20385;-68
2022/05/09 03:36:29;;;;;;;;;;;;;;;-140.72;100.00;52648.56;5094184;28;20360;-69
2022/05/09 03:38:54;;;;;;;;;;;;;;;-140.72;100.00;52630.31;5093918;28;19924;-68
2022/05/09 03:41:20;;;;;;;;;;;;;;;-140.72;100.00;52601.91;5093976;28;19920;-68
2022/05/09 03:43:46;;;;;;;;;;;;;;;-140.72;100.00;52622.19;5094444;28;19952;-69
2022/05/09 03:46:11;;;;;;;;;;;;;;;-140.72;100.00;52587.69;5093747;28;19969;-69
2022/05/09 03:48:36;;;;;;;;;;;;;;;-140.72;100.00;52597.84;5094168;28;19916;-68
2022/05/09 03:51:02;;;;;;;;;;;;;;;-140.72;100.00;52601.91;5093676;28;19970;-68
2022/05/09 03:53:27;;;;;;;;;;;;;;;-140.72;100.00;52601.91;5092231;28;19916;-68
2022/05/09 03:55:53;;;;;;;;;;;;;;;-140.72;100.00;52624.22;5093393;28;19916;-69
2022/05/09 03:58:18;;;;;;;;;;;;;;;-140.72;100.00;52638.41;5093555;28;19916;-68
2022/05/09 04:00:43;;;;;;;;;;;;;;;-140.72;100.00;52614.06;5093523;28;20003;-68
2022/05/09 04:03:09;;;;;;;;;;;;;;;-140.72;100.00;52581.59;5093367;28;19920;-68
2022/05/09 04:05:35;;;;;;;;;;;;;;;-140.72;100.00;52581.59;5092218;28;20380;-68
2022/05/09 04:08:02;;;;;;;;;;;;;;;-140.72;100.00;52636.38;5093664;28;19916;-68
2022/05/09 04:10:32;;;;;;;;;;;;;;;-140.72;100.00;52614.06;5092419;28;20333;-69
2022/05/09 04:12:57;;;;;;;;;;;;;;;-140.72;100.00;52674.94;5090131;28;19916;-68
2022/05/09 04:18:07;;;;;;;;;;;;;;;-140.72;100.00;52634.38;5097673;28;20453;-69
2022/05/09 04:20:33;;;;;;;;;;;;;;;-140.72;100.00;52599.88;5096877;28;19999;-69
2022/05/09 04:22:59;;;;;;;;;;;;;;;-140.72;100.00;52650.59;5099043;28;19963;-69
2022/05/09 04:25:25;;;;;;;;;;;;;;;-140.72;100.00;52630.31;5097809;28;19920;-69
2022/05/09 04:27:50;;;;;;;;;;;;;;;-140.72;100.00;52630.31;5097973;28;19916;-68
2022/05/09 04:30:16;;;;;;;;;;;;;;;-140.72;100.00;52589.72;5087470;28;20006;-69
2022/05/09 04:32:41;;;;;;;;;;;;;;;-140.72;100.00;52607.97;5087653;28;19916;-69
2022/05/09 04:35:14;;;;;;;;;;;;;;;-140.72;100.00;52597.84;5083795;28;19974;-68
2022/05/09 04:37:42;;;;;;;;;;;;;;;-140.72;100.00;52585.66;5085086;28;19931;-70
2022/05/09 04:40:07;;;;;;;;;;;;;;;-140.72;100.00;52583.63;5085323;28;19916;-70
2022/05/09 04:42:32;;;;;;;;;;;;;;;-140.72;100.00;52618.13;5084947;28;19920;-70
2022/05/09 04:44:57;;;;;;;;;;;;;;;-140.72;100.00;52644.50;5085203;28;19916;-69
2022/05/09 04:47:22;;;;;;;;;;;;;;;-140.72;100.00;52612.03;5086090;28;19982;-75
2022/05/09 04:49:48;;;;;;;;;;;;;;;-140.72;100.00;52620.16;5085125;28;19917;-69
2022/05/09 04:52:13;;;;;;;;;;;;;;;-140.72;100.00;52620.16;5086089;28;19919;-69
2022/05/09 04:54:38;;;;;;;;;;;;;;;-140.72;100.00;52618.13;5083726;28;20371;-69
2022/05/09 04:57:04;;;;;;;;;;;;;;;-140.72;100.00;52610.00;5083210;28;20019;-68
2022/05/09 04:59:29;;;;;;;;;;;;;;;-140.72;100.00;52599.88;5083500;28;19920;-70
2022/05/09 05:01:54;;;;;;;;;;;;;;;-140.72;100.00;52607.97;5082293;28;19923;-69
2022/05/09 05:04:19;;;;;;;;;;;;;;;-140.72;100.00;52599.88;5084819;28;20020;-70
2022/05/09 05:06:44;;;;;;;;;;;;;;;-140.72;100.00;52618.13;5084089;28;19916;-69
2022/05/09 05:09:10;;;;;;;;;;;;;;;-140.72;100.00;52616.09;5084654;28;19916;-68
2022/05/09 05:11:36;;;;;;;;;;;;;;;-140.72;100.00;52601.91;5084572;28;19920;-69
2022/05/09 05:14:01;;;;;;;;;;;;;;;-140.72;100.00;52634.38;5088334;28;20362;-68
2022/05/09 05:16:59;;;;;;;;;;;;;;;-140.72;100.00;52567.41;5078815;28;19995;-68
2022/05/09 05:19:11;;;;;;;;;;;;;;;-140.72;100.00;52573.50;5084014;28;19923;-68
2022/05/09 05:21:36;;;;;;;;;;;;;;;-140.72;100.00;52601.91;5086167;28;19916;-68
2022/05/09 05:24:02;;;;;;;;;;;;;;;-140.72;100.00;52551.16;5083467;28;19923;-68
2022/05/09 05:26:27;;;;;;;;;;;;;;;-140.72;100.00;52553.19;5065747;28;19920;-69
2022/05/09 05:28:52;;;;;;;;;;;;;;;-140.72;100.00;52585.66;5080908;28;20268;-68
2022/05/09 05:31:20;;;;;;;;;;;;;;;-140.72;100.00;52569.44;5080612;28;20294;-69
2022/05/09 05:33:46;;;;;;;;;;;;;;;-140.72;100.00;52547.09;5084582;28;19920;-69
2022/05/09 05:36:12;;;;;;;;;;;;;;;-140.72;100.00;52591.75;5079970;28;20050;-68
2022/05/09 05:38:39;;;;;;;;;;;;;;;-140.72;100.00;52587.69;5084030;28;19938;-69
2022/05/09 05:41:04;;;;;;;;;;;;;;;-140.72;100.00;52577.53;5084021;28;21634;-69
2022/05/09 05:43:29;;;;;;;;;;;;;;;-140.72;100.00;52587.69;5080130;28;19925;-69
2022/05/09 05:45:55;;;;;;;;;;;;;;;-140.72;100.00;52573.50;5084166;28;19921;-69
2022/05/09 05:48:21;;;;;;;;;;;;;;;-140.72;100.00;52565.38;5082170;28;19940;-69
2022/05/09 05:50:46;;;;;;;;;;;;;;;-140.72;100.00;52585.66;5082276;28;20355;-69
2022/05/09 05:53:12;;;;;;;;;;;;;;;-140.72;100.00;52534.94;5080750;28;19920;-69
2022/05/09 05:55:37;;;;;;;;;;;;;;;-140.72;100.00;52528.84;5085841;28;19921;-69
2022/05/09 05:58:03;;;;;;;;;;;;;;;-140.72;100.00;52575.50;5088120;28;19999;-68
2022/05/09 06:00:28;;;;;;;;;;;;;;;-140.72;100.00;52532.91;5083032;28;19975;-74
2022/05/09 06:02:53;;;;;;;;;;;;;;;-140.72;100.00;52573.50;5093369;28;19916;-68
2022/05/09 06:05:19;;;;;;;;;;;;;;;-140.72;100.00;52553.19;5092229;28;19955;-70
2022/05/09 06:07:46;;;;;;;;;;;;;;;-140.72;100.00;52551.16;5084163;28;19938;-68
2022/05/09 06:10:12;;;;;;;;;;;;;;;-140.72;100.00;52577.53;5075269;28;19917;-68
2022/05/09 06:12:38;;;;;;;;;;;;;;;-140.72;100.00;52565.38;5074860;28;19966;-67
2022/05/09 06:17:48;;;;;;;;;;;;;;;-140.72;100.00;52575.50;5075648;28;19939;-71
2022/05/09 06:20:13;;;;;;;;;;;;;;;-140.72;100.00;52549.13;5079060;28;19916;-69
2022/05/09 06:22:38;;;;;;;;;;;;;;;-140.72;100.00;52555.22;5088006;28;19916;-68
2022/05/09 06:25:14;;;;;;;;;;;;;;;-140.72;100.00;52534.94;5096427;28;19923;-69
2022/05/09 06:27:41;;;;;;;;;;;;;;;-140.72;100.00;52534.94;5093790;28;20027;-69
2022/05/09 06:30:08;;;;;;;;;;;;;;;-140.72;100.00;52512.59;5093712;28;20302;-68
2022/05/09 06:32:33;;;;;;;;;;;;;;;-140.72;100.00;52528.84;5094748;28;19949;-68
2022/05/09 06:35:06;;;;;;;;;;;;;;;-140.72;100.00;52508.56;5093549;28;20481;-68
2022/05/09 06:37:33;;;;;;;;;;;;;;;-140.72;100.00;52528.84;5094409;28;20386;-68
2022/05/09 06:39:58;;;;;;;;;;;;;;;-140.72;100.00;52472.03;5093073;28;19916;-68
2022/05/09 06:42:23;;;;;;;;;;;;;;;-140.72;100.00;52496.38;5094307;28;20283;-69
2022/05/09 06:44:48;;;;;;;;;;;;;;;-140.72;100.00;52528.84;5094098;28;19986;-68
2022/05/09 06:47:14;;;;;;;;;;;;;;;-140.72;100.00;52536.97;5093800;28;19923;-68
2022/05/09 06:49:39;;;;;;;;;;;;;;;-140.72;100.00;52518.69;5079115;28;19935;-69
2022/05/09 06:52:04;;;;;;;;;;;;;;;-140.72;100.00;52484.19;5073333;28;19943;-69
2022/05/09 06:54:29;;;;;;;;;;;;;;;-140.72;100.00;52500.44;5070827;28;20310;-68
2022/05/09 06:56:55;;;;;;;;;;;;;;;-140.72;100.00;52502.47;5080263;28;20245;-68
2022/05/09 06:59:20;;;;;;;;;;;;;;;-140.72;100.00;52474.06;5076177;28;19931;-68
2022/05/09 07:01:45;;;;;;;;;;;;;;;-140.72;100.00;52492.31;5083925;28;20359;-68
2022/05/09 07:04:11;;;;;;;;;;;;;;;-140.72;100.00;52512.59;5078732;28;20017;-69
2022/05/09 07:06:36;;;;;;;;;;;;;;;-140.72;100.00;52484.19;5086634;28;19969;-68
2022/05/09 07:09:02;;;;;;;;;;;;;;;-140.72;100.00;52459.84;5084052;28;19920;-69
2022/05/09 07:11:28;;;;;;;;;;;;;;;-140.72;100.00;52439.56;5071525;28;20390;-69
2022/05/09 07:13:53;;;;;;;;;;;;;;;-140.72;100.00;52520.72;5076464;28;19916;-69
2022/05/09 07:16:18;;;;;;;;;;;;;;;-140.72;100.00;52474.06;5076623;28;19920;-68
2022/05/09 07:18:43;;;;;;;;;;;;;;;-140.72;100.00;52463.91;5078122;28;19958;-68
2022/05/09 07:21:09;;;;;;;;;;;;;;;-140.72;100.00;52486.22;5077465;28;20164;-69
2022/05/09 07:23:34;;;;;;;;;;;;;;;-140.72;100.00;52449.72;5094208;28;19916;-69
2022/05/09 07:26:00;;;;;;;;;;;;;;;-140.72;100.00;52439.56;5093533;28;20011;-69
2022/05/09 07:28:28;;;;;;;;;;;;;;;-140.72;100.00;52504.50;5094180;28;19916;-69
2022/05/09 07:30:53;;;;;;;;;;;;;;;-140.72;100.00;52457.81;5093257;28;19920;-69
2022/05/09 07:33:19;;;;;;;;;;;;;;;-140.72;100.00;52435.50;5094207;28;19916;-69
2022/05/09 07:35:45;;;;;;;;;;;;;;;-140.72;100.00;52439.56;5083509;28;19949;-69
2022/05/09 07:38:11;;;;;;;;;;;;;;;-140.72;100.00;52435.50;5081233;28;19928;-70
2022/05/09 07:40:36;;;;;;;;;;;;;;;-140.72;100.00;52467.97;5086573;28;19928;-69
2022/05/09 07:43:01;;;;;;;;;;;;;;;-140.72;100.00;52429.41;5081382;28;20037;-70
2022/05/09 07:45:27;;;;;;;;;;;;;;;-140.72;100.00;52447.69;5086314;28;20437;-69
2022/05/09 07:47:52;;;;;;;;;;;;;;;-140.72;100.00;52431.44;5102438;28;19920;-72
2022/05/09 07:50:17;;;;;;;;;;;;;;;-140.72;100.00;52423.31;5109772;28;19916;-70
2022/05/09 07:52:43;;;;;;;;;;;;;;;-140.72;100.00;52394.91;5088701;28;19916;-69
2022/05/09 07:55:10;;;;;;;;;;;;;;;-140.72;100.00;52449.72;5093129;28;21762;-68
2022/05/09 07:57:35;;;;;;;;;;;;;;;-140.72;100.00;52443.63;5092333;28;20009;-69
2022/05/09 08:00:01;;;;;;;;;;;;;;;-140.72;100.00;52384.78;5093369;28;19916;-68
2022/05/09 08:02:26;;;;;;;;;;;;;;;-140.72;100.00;52417.25;5088298;28;19983;-68
2022/05/09 08:04:51;;;;;;;;;;;;;;;-140.72;100.00;52378.69;5089916;28;19924;-68
2022/05/09 08:07:17;;;;;;;;;;;;;;;-140.72;100.00;52380.72;5079828;28;19928;-68
2022/05/09 08:09:42;;;;;;;;;;;;;;;-140.72;100.00;52370.56;5084772;28;19920;-68
2022/05/09 08:12:08;;;;;;;;;;;;;;;-140.72;100.00;52372.59;5081311;28;20007;-68
2022/05/09 08:14:33;;;;;;;;;;;;;;;-140.72;100.00;52364.47;5076730;28;19917;-68
2022/05/09 08:16:59;;;;;;;;;;;;;;;-140.72;100.00;52366.50;5072939;28;19927;-68
2022/05/09 08:19:24;;;;;;;;;;;;;;;-140.72;100.00;52330.00;5072855;28;20014;-69
2022/05/09 08:21:51;;;;;;;;;;;;;;;-140.72;100.00;52336.06;5089107;28;20003;-68
2022/05/09 08:24:17;;;;;;;;;;;;;;;-140.72;100.00;52332.03;5079841;28;19924;-68
2022/05/09 08:26:42;;;;;;;;;;;;;;;-140.72;100.00;52283.31;5081295;28;19916;-70
2022/05/09 08:29:07;;;;;;;;;;;;;;;-140.72;100.00;52273.19;5075509;28;20268;-70
2022/05/09 08:31:33;;;;;;;;;;;;;;;-140.72;100.00;52263.03;5092696;28;19928;-69
2022/05/09 08:33:59;;;;;;;;;;;;;;;-140.72;100.00;52309.69;5092588;28;20424;-69
2022/05/09 08:39:08;;;;;;;;;;;;;;;-140.72;100.00;52289.41;5086648;28;20012;-68
2022/05/09 08:41:37;;;;;;;;;;;;;;;-140.72;100.00;52228.53;5085092;28;19920;-69
2022/05/09 08:44:20;;;;;;;;;;;;;;;-140.72;100.00;52230.56;5092923;28;19924;-69
2022/05/09 08:46:58;;;;;;;;;;;;;;;-140.72;100.00;52256.94;5091770;28;19920;-68
2022/05/09 08:49:38;;;;;;;;;;;;;;;-140.72;100.00;52246.78;5083841;28;20264;-69
2022/05/09 08:52:22;;;;;;;;;;;;;;;-140.72;100.00;52206.22;5091754;28;19923;-69
2022/05/09 08:54:48;;;;;;;;;;;;;;;-140.72;100.00;52210.28;5092962;28;20690;-68
2022/05/09 08:57:16;;;;;;;;;;;;;;;-140.72;100.00;52165.63;5092938;28;20390;-69
2022/05/09 08:59:50;;;;;;;;;;;;;;;-140.72;100.00;52177.81;5092660;28;20369;-69
2022/05/09 09:02:21;;;;;;;;;;;;;;;-140.72;100.00;52139.25;5081939;28;19925;-69
2022/05/09 09:04:52;;;;;;;;;;;;;;;-140.72;100.00;52131.16;5090824;28;20490;-68
2022/05/09 09:07:29;;;;;;;;;;;;;;;-140.72;100.00;52153.47;5092413;28;19943;-69
2022/05/09 09:10:02;;;;;;;;;;;;;;;-140.72;100.00;52078.38;5083304;28;19968;-69
2022/05/09 09:12:45;;;;;;;;;;;;;;;-140.72;100.00;52135.19;5096599;28;20018;-68
2022/05/09 09:15:10;;;;;;;;;;;;;;;-140.72;100.00;52116.94;5096421;28;19920;-68
2022/05/09 09:17:38;;;;;;;;;;;;;;;-140.72;100.00;52082.44;5082138;28;19928;-68
2022/05/09 09:20:12;;;;;;;;;;;;;;;-140.72;100.00;52027.66;5076172;28;19917;-68
2022/05/09 09:22:49;;;;;;;;;;;;;;;-140.72;100.00;52054.03;5076694;28;20062;-67
2022/05/09 09:25:17;;;;;;;;;;;;;;;-140.72;100.00;52037.81;5093366;28;20290;-68
2022/05/09 09:27:42;;;;;;;;;;;;;;;-140.72;100.00;51972.88;5116512;28;19915;-68
2022/05/09 09:30:12;;;;;;;;;;;;;;;-140.72;100.00;51995.19;5115307;28;19939;-67
2022/05/09 09:32:42;;;;;;;;;;;;;;;-140.72;100.00;52001.28;5083433;28;19920;-68
2022/05/09 09:35:07;;;;;;;;;;;;;;;-140.72;100.00;51983.03;5086831;28;19923;-67
2022/05/09 09:37:35;;;;;;;;;;;;;;;-140.72;100.00;52005.34;5078239;28;20010;-68
2022/05/09 09:40:02;;;;;;;;;;;;;;;-140.72;100.00;51952.59;5083555;28;19951;-68
2022/05/09 09:42:27;;;;;;;;;;;;;;;-140.72;100.00;51924.19;5083555;28;20347;-68
2022/05/09 09:44:58;;;;;;;;;;;;;;;-140.72;100.00;51948.53;5094780;28;20004;-68
2022/05/09 09:47:25;;;;;;;;;;;;;;;-140.72;100.00;51897.81;5088077;28;19959;-68
2022/05/09 09:50:11;;;;;;;;;;;;;;;-140.72;100.00;51877.53;5088417;28;19916;-69
2022/05/09 09:52:45;;;;;;;;;;;;;;;-140.72;100.00;51920.13;5076236;28;19928;-69
2022/05/09 09:55:29;;;;;;;;;;;;;;;-140.72;100.00;51891.72;5083562;28;19922;-69
2022/05/09 09:57:55;;;;;;;;;;;;;;;-140.72;100.00;51930.28;5095789;28;19916;-70
2022/05/09 10:00:29;;;;;;;;;;;;;;;-140.72;100.00;51843.03;5078002;28;19970;-70
2022/05/09 10:02:55;;;;;;;;;;;;;;;-140.72;100.00;51847.09;5102530;28;19916;-69
2022/05/09 10:05:30;;;;;;;;;;;;;;;-140.72;100.00;51867.38;5086784;28;20410;-69
2022/05/09 10:07:56;;;;;;;;;;;;;;;-140.72;100.00;51843.03;5081186;28;19916;-69
2022/05/09 10:10:23;;;;;;;;;;;;;;;-140.72;100.00;51849.13;5075519;28;20260;-69
2022/05/09 10:12:50;;;;;;;;;;;;;;;-140.72;100.00;51824.78;5075371;28;20272;-69
2022/05/09 10:15:29;;;;;;;;;;;;;;;-140.72;100.00;51871.44;5095742;28;19916;-69
2022/05/09 10:17:56;;;;;;;;;;;;;;;-140.72;100.00;51849.13;5078426;28;20013;-69
2022/05/09 10:20:54;;;;;;;;;;;;;;;-140.72;100.00;51875.50;5079498;28;19921;-69
2022/05/09 10:26:05;;;;;;;;;;;;;;;-140.72;100.00;51822.75;5083772;28;19932;-71
2022/05/09 10:28:32;;;;;;;;;;;;;;;-140.72;100.00;51786.22;5076311;28;20007;-71
2022/05/09 10:31:02;;;;;;;;;;;;;;;-140.72;100.00;51822.75;5076153;28;19924;-71
2022/05/09 10:33:44;;;;;;;;;;;;;;;-140.72;100.00;51751.75;5078784;28;19929;-71
2022/05/09 10:36:24;;;;;;;;;;;;;;;-140.72;100.00;51719.28;5075459;28;19931;-68
2022/05/09 10:38:49;;;;;;;;;;;;;;;-140.72;99.66;51694.94;5082143;28;20383;-68
2022/05/09 10:41:24;;;;;;;;;;;;;;;-140.72;100.00;51759.84;5080157;28;19980;-68
2022/05/09 10:43:54;;;;;;;;;;;;;;;-140.72;100.00;51719.28;5083311;28;20235;-68
2022/05/09 10:46:20;;;;;;;;;;;;;;;-140.72;95.82;51747.69;5075618;28;19928;-68
2022/05/09 10:48:59;;;;;;;;;;;;;;;-140.72;98.44;51717.25;5074080;28;19921;-68
2022/05/09 10:51:32;;;;;;;;;;;;;;;-140.72;99.79;51772.03;5094067;28;20343;-68
2022/05/09 10:54:10;;;;;;;;;;;;;;;-140.72;100.00;51778.13;5085423;28;19920;-69
2022/05/09 10:56:40;;;;;;;;;;;;;;;-140.72;100.00;51696.97;5074137;28;20228;-69
2022/05/09 10:59:10;;;;;;;;;;;;;;;-140.72;95.20;51676.69;5081231;28;19916;-70
2022/05/09 11:01:56;;;;;;;;;;;;;;;-140.72;94.24;51688.84;5083470;28;19928;-71
2022/05/09 11:04:22;;;;;;;;;;;;;;;-140.72;90.09;51658.41;5073658;28;20379;-69
2022/05/09 11:07:07;;;;;;;;;;;;;;;-140.72;77.66;51595.53;5078540;28;19984;-68
2022/05/09 11:09:54;;;;;;;;;;;;;;;-140.72;85.36;51674.66;5078290;28;19920;-69
2022/05/09 11:12:37;;;;;;;;;;;;;;;-140.72;86.99;51694.94;5084176;28;19924;-67
2022/05/09 11:15:18;;;;;;;;;;;;;;;-140.72;79.97;51705.06;5078530;28;19989;-68
2022/05/09 11:17:56;;;;;;;;;;;;;;;-140.72;87.31;51615.81;5085377;28;20011;-68
2022/05/09 11:20:28;;;;;;;;;;;;;;;-140.72;82.98;51607.69;5073886;28;19917;-68
2022/05/09 11:22:53;;;;;;;;;;;;;;;-140.72;78.38;51587.41;5074539;28;19982;-69
2022/05/09 11:25:18;;;;;;;;;;;;;;;-140.72;74.59;51599.59;5078385;28;19951;-68
2022/05/09 11:28:02;;;;;;;;;;;;;;;-140.72;83.54;51638.13;5085572;28;19919;-68
2022/05/09 11:30:43;;;;;;;;;;;;;;;-140.72;83.79;51628.00;5076377;28;20370;-68
2022/05/09 11:33:17;;;;;;;;;;;;;;;-140.72;78.44;51630.00;5083549;28;19920;-68
2022/05/09 11:35:43;;;;;;;;;;;;;;;-140.72;75.03;51595.53;5076017;28;19966;-68
2022/05/09 11:38:27;;;;;;;;;;;;;;;-140.72;94.84;51632.03;5084303;28;20007;-68
2022/05/09 11:40:52;;;;;;;;;;;;;;;-140.72;83.19;51623.94;5074478;28;19925;-68
2022/05/09 11:43:38;;;;;;;;;;;;;;;-140.72;79.68;51660.44;5077647;28;20332;-68
2022/05/09 11:46:04;;;;;;;;;;;;;;;-140.72;78.40;51575.25;5072976;28;19920;-67
2022/05/09 11:48:32;;;;;;;;;;;;;;;-140.72;84.93;51642.19;5077140;28;20002;-68
2022/05/09 11:50:57;;;;;;;;;;;;;;;-140.72;82.90;51603.63;5077587;28;19920;-67
2022/05/09 11:53:25;;;;;;;;;;;;;;;-140.72;89.73;51648.28;5076145;28;20003;-68
2022/05/09 11:55:50;;;;;;;;;;;;;;;-140.72;78.29;51542.78;5087039;28;19977;-69
2022/05/09 11:58:16;;;;;;;;;;;;;;;-140.72;70.14;51508.28;5077041;28;19967;-68
2022/05/09 12:00:43;;;;;;;;;;;;;;;-140.72;67.99;51504.25;5079146;28;20334;-68
2022/05/09 12:03:10;;;;;;;;;;;;;;;-140.72;72.54;51490.03;5072429;28;20003;-68
2022/05/09 12:05:36;;;;;;;;;;;;;;;-140.72;68.58;51530.59;5074328;28;19916;-68
2022/05/09 12:08:02;;;;;;;;;;;;;;;-140.72;69.91;51488.00;5078174;28;20019;-67
2022/05/09 12:10:30;;;;;;;;;;;;;;;-140.72;70.16;51526.56;5076735;28;19967;-69
2022/05/09 12:13:04;;;;;;;;;;;;;;;-140.72;65.34;51540.75;5072724;28;20015;-68
2022/05/09 12:15:29;;;;;;;;;;;;;;;-140.72;84.34;51565.09;5074428;28;19920;-67
2022/05/09 12:17:54;;;;;;;;;;;;;;;-140.72;73.66;51494.09;5071937;28;20264;-69
2022/05/09 12:20:29;;;;;;;;;;;;;;;-140.72;71.44;51473.81;5073919;28;20000;-70
2022/05/09 12:22:58;;;;;;;;;;;;;;;-140.72;70.31;51471.78;5073615;28;19920;-69
2022/05/09 12:25:33;;;;;;;;;;;;;;;-140.72;72.75;51563.06;5073253;28;19974;-69
2022/05/09 12:28:03;;;;;;;;;;;;;;;-140.72;80.41;51530.59;5082016;28;19916;-68
2022/05/09 12:30:40;;;;;;;;;;;;;;;-140.72;72.25;51550.91;5087049;28;19920;-68
2022/05/09 12:33:13;;;;;;;;;;;;;;;-140.72;69.45;51494.09;5088548;28;19921;-68
2022/05/09 12:35:38;;;;;;;;;;;;;;;-140.72;68.53;51494.09;5094893;28;19916;-71
2022/05/09 12:38:03;;;;;;;;;;;;;;;-140.72;72.79;51461.63;5092065;28;19920;-71